createdAt,value
2023-03-01T00:01:53.286Z,99329.47
2023-03-01T00:04:21.950Z,99329.66
2023-03-01T00:06:50.810Z,99317.69
2023-03-01T00:09:19.721Z,99320.13
2023-03-01T00:11:48.671Z,99328.84
2023-03-01T00:14:20.581Z,99332.25
2023-03-01T00:16:49.555Z,99336.69
2023-03-01T00:19:20.914Z,99340.78
2023-03-01T00:21:50.398Z,99341.00
2023-03-01T00:24:19.008Z,99334.84
2023-03-01T00:26:48.424Z,99324.50
2023-03-01T00:29:17.029Z,99315.97
2023-03-01T00:31:45.759Z,99318.56
2023-03-01T00:34:14.339Z,99320.34
2023-03-01T00:36:43.298Z,99320.34
2023-03-01T00:39:17.331Z,99310.59
2023-03-01T00:41:46.471Z,99311.81
2023-03-01T00:44:15.060Z,99310.09
2023-03-01T00:46:43.847Z,99325.50
2023-03-01T00:49:12.620Z,99324.75
2023-03-01T00:51:43.259Z,99322.94
2023-03-01T00:54:12.387Z,99322.94
2023-03-01T00:56:40.991Z,99327.28
2023-03-01T00:59:09.765Z,99333.28
2023-03-01T01:01:38.678Z,99341.13
2023-03-01T01:04:11.050Z,99342.75
2023-03-01T01:06:46.375Z,99334.94
2023-03-01T01:09:21.129Z,99343.63
2023-03-01T01:11:53.290Z,99343.66
2023-03-01T01:14:23.524Z,99348.94
2023-03-01T01:16:53.046Z,99347.97
2023-03-01T01:19:23.383Z,99352.31
2023-03-01T01:21:52.968Z,99349.75
2023-03-01T01:24:22.024Z,99354.06
2023-03-01T01:26:51.972Z,99354.91
2023-03-01T01:29:21.370Z,99349.75
2023-03-01T01:31:51.285Z,99349.84
2023-03-01T01:34:22.901Z,99355.72
2023-03-01T01:36:56.001Z,99360.25
2023-03-01T01:39:25.907Z,99356.78
2023-03-01T01:41:54.836Z,99356.78
2023-03-01T01:44:27.340Z,99362.75
2023-03-01T01:47:03.986Z,99361.75
2023-03-01T01:49:36.140Z,99376.66
2023-03-01T01:52:12.796Z,99382.63
2023-03-01T01:54:51.819Z,99374.06
2023-03-01T01:57:26.391Z,99374.72
2023-03-01T02:00:02.489Z,99381.59
2023-03-01T02:02:45.174Z,99392.28
2023-03-01T02:05:18.447Z,99399.59
2023-03-01T02:07:49.013Z,99409.31
2023-03-01T02:10:23.820Z,99421.41
2023-03-01T02:12:54.431Z,99421.41
2023-03-01T02:15:24.086Z,99423.19
2023-03-01T02:17:54.159Z,99420.53
2023-03-01T02:20:42.895Z,99423.88
2023-03-01T02:23:11.949Z,99423.97
2023-03-01T02:25:55.732Z,99434.09
2023-03-01T02:28:46.182Z,99431.41
2023-03-01T02:31:37.984Z,99447.13
2023-03-01T02:34:08.714Z,99447.13
2023-03-01T02:36:47.924Z,99446.91
2023-03-01T02:39:23.288Z,99443.44
2023-03-01T02:41:55.536Z,99444.38
2023-03-01T02:44:24.983Z,99439.66
2023-03-01T02:46:58.377Z,99454.59
2023-03-01T02:49:34.088Z,99446.72
2023-03-01T02:52:41.222Z,99450.03
2023-03-01T02:55:14.815Z,99448.44
2023-03-01T02:57:46.325Z,99463.91
2023-03-01T03:00:23.710Z,99468.06
2023-03-01T03:02:54.484Z,99469.84
2023-03-01T03:05:30.432Z,99474.94
2023-03-01T03:08:02.168Z,99472.22
2023-03-01T03:10:41.333Z,99475.50
2023-03-01T03:13:13.673Z,99473.81
2023-03-01T03:15:45.101Z,99478.97
2023-03-01T03:18:17.603Z,99494.34
2023-03-01T03:20:47.442Z,99497.94
2023-03-01T03:23:16.250Z,99503.88
2023-03-01T03:25:45.191Z,99507.38
2023-03-01T03:28:13.720Z,99509.72
2023-03-01T03:30:43.696Z,99508.72
2023-03-01T03:33:14.120Z,99507.78
2023-03-01T03:35:49.509Z,99517.97
2023-03-01T03:38:21.628Z,99526.53
2023-03-01T03:40:53.060Z,99523.22
2023-03-01T03:43:24.823Z,99529.16
2023-03-01T03:45:54.147Z,99535.94
2023-03-01T03:48:23.051Z,99529.72
2023-03-01T03:50:55.713Z,99536.59
2023-03-01T03:53:24.895Z,99534.69
2023-03-01T03:55:53.654Z,99547.94
2023-03-01T03:58:24.489Z,99553.59
2023-03-01T04:00:59.095Z,99562.09
2023-03-01T04:03:29.669Z,99562.09
2023-03-01T04:06:00.972Z,99572.47
2023-03-01T04:08:30.696Z,99568.03
2023-03-01T04:11:22.927Z,99570.56
2023-03-01T04:13:52.890Z,99573.88
2023-03-01T04:16:21.658Z,99576.13
2023-03-01T04:18:50.516Z,99587.09
2023-03-01T04:21:19.421Z,99589.53
2023-03-01T04:23:48.322Z,99588.31
2023-03-01T04:26:16.953Z,99587.56
2023-03-01T04:28:47.669Z,99581.09
2023-03-01T04:31:20.109Z,99579.28
2023-03-01T04:33:50.568Z,99575.72
2023-03-01T04:36:21.200Z,99589.88
2023-03-01T04:38:50.791Z,99587.53
2023-03-01T04:41:22.906Z,99585.72
2023-03-01T04:43:52.348Z,99579.56
2023-03-01T04:46:30.166Z,99580.84
2023-03-01T04:48:59.535Z,99572.66
2023-03-01T04:51:28.122Z,99578.59
2023-03-01T04:53:57.367Z,99575.47
2023-03-01T04:56:26.060Z,99582.50
2023-03-01T04:58:57.974Z,99587.94
2023-03-01T05:01:26.806Z,99585.25
2023-03-01T05:03:55.408Z,99589.66
2023-03-01T05:06:24.409Z,99590.28
2023-03-01T05:08:53.006Z,99585.16
2023-03-01T05:11:22.045Z,99588.16
2023-03-01T05:13:51.843Z,99585.34
2023-03-01T05:16:21.891Z,99590.53
2023-03-01T05:18:52.252Z,99595.75
2023-03-01T05:21:21.066Z,99590.19
2023-03-01T05:23:49.904Z,99590.59
2023-03-01T05:26:39.417Z,99584.84
2023-03-01T05:29:08.597Z,99589.56
2023-03-01T05:31:37.120Z,99584.56
2023-03-01T05:34:06.592Z,99597.22
2023-03-01T05:36:36.600Z,99591.13
2023-03-01T05:39:05.536Z,99583.38
2023-03-01T05:41:34.056Z,99586.75
2023-03-01T05:44:02.927Z,99580.84
2023-03-01T05:46:31.736Z,99587.50
2023-03-01T05:49:02.035Z,99593.00
2023-03-01T05:51:31.264Z,99585.84
2023-03-01T05:54:00.049Z,99588.75
2023-03-01T05:56:28.913Z,99586.53
2023-03-01T05:58:57.938Z,99575.44
2023-03-01T06:01:26.511Z,99576.59
2023-03-01T06:03:55.312Z,99583.31
2023-03-01T06:06:23.910Z,99589.50
2023-03-01T06:08:53.771Z,99579.63
2023-03-01T06:11:23.504Z,99587.66
2023-03-01T06:13:52.475Z,99590.16
2023-03-01T06:16:21.121Z,99582.69
2023-03-01T06:18:49.978Z,99582.09
2023-03-01T06:21:18.578Z,99583.75
2023-03-01T06:23:47.492Z,99583.81
2023-03-01T06:26:16.110Z,99579.13
2023-03-01T06:28:47.969Z,99576.53
2023-03-01T06:31:17.155Z,99579.81
2023-03-01T06:33:46.532Z,99579.81
2023-03-01T06:36:15.361Z,99578.91
2023-03-01T06:38:45.010Z,99576.09
2023-03-01T06:41:13.769Z,99571.81
2023-03-01T06:43:42.463Z,99573.09
2023-03-01T06:46:11.196Z,99574.22
2023-03-01T06:48:40.072Z,99573.81
2023-03-01T06:51:08.907Z,99571.94
2023-03-01T06:53:37.447Z,99570.69
2023-03-01T06:56:06.512Z,99565.16
2023-03-01T06:58:35.163Z,99558.81
2023-03-01T07:01:08.636Z,99558.53
2023-03-01T07:03:37.489Z,99554.41
2023-03-01T07:06:06.237Z,99551.31
2023-03-01T07:08:34.974Z,99543.72
2023-03-01T07:11:05.477Z,99546.56
2023-03-01T07:13:34.771Z,99540.28
2023-03-01T07:16:03.425Z,99546.44
2023-03-01T07:18:32.283Z,99546.25
2023-03-01T07:21:05.557Z,99537.78
2023-03-01T07:23:34.554Z,99538.47
2023-03-01T07:26:03.477Z,99525.41
2023-03-01T07:28:32.618Z,99518.81
2023-03-01T07:31:05.577Z,99507.56
2023-03-01T07:33:35.004Z,99509.88
2023-03-01T07:36:05.495Z,99494.59
2023-03-01T07:38:34.643Z,99492.72
2023-03-01T07:41:05.231Z,99482.88
2023-03-01T07:43:34.272Z,99477.47
2023-03-01T07:46:04.197Z,99480.75
2023-03-01T07:48:34.523Z,99475.25
2023-03-01T07:51:06.251Z,99472.94
2023-03-01T07:53:38.730Z,99466.47
2023-03-01T07:56:11.121Z,99459.88
2023-03-01T07:58:41.949Z,99458.84
2023-03-01T08:01:14.280Z,99451.91
2023-03-01T08:03:44.253Z,99438.09
2023-03-01T08:06:14.995Z,99445.63
2023-03-01T08:08:44.149Z,99446.06
2023-03-01T08:11:15.204Z,99442.06
2023-03-01T08:13:45.089Z,99442.22
2023-03-01T08:16:16.375Z,99441.97
2023-03-01T08:18:45.789Z,99437.84
2023-03-01T08:21:19.089Z,99435.28
2023-03-01T08:23:48.249Z,99431.75
2023-03-01T08:26:22.445Z,99426.50
2023-03-01T08:28:52.194Z,99430.22
2023-03-01T08:31:26.709Z,99419.13
2023-03-01T08:33:58.195Z,99418.09
2023-03-01T08:36:29.649Z,99413.31
2023-03-01T08:38:59.200Z,99404.22
2023-03-01T08:41:28.146Z,99398.09
2023-03-01T08:44:00.599Z,99403.44
2023-03-01T08:46:31.763Z,99401.78
2023-03-01T08:49:01.261Z,99401.00
2023-03-01T08:51:31.019Z,99400.28
2023-03-01T08:53:59.939Z,99400.16
2023-03-01T08:56:28.960Z,99399.41
2023-03-01T08:58:57.918Z,99388.41
2023-03-01T09:01:27.087Z,99396.88
2023-03-01T09:03:56.300Z,99390.38
2023-03-01T09:06:25.552Z,99399.66
2023-03-01T09:08:54.621Z,99387.09
2023-03-01T09:11:24.627Z,99377.19
2023-03-01T09:13:53.841Z,99383.06
2023-03-01T09:16:24.394Z,99376.63
2023-03-01T09:18:55.072Z,99370.31
2023-03-01T09:21:39.064Z,99365.56
2023-03-01T09:24:15.650Z,99359.34
2023-03-01T09:26:45.295Z,99360.94
2023-03-01T09:29:14.204Z,99353.75
2023-03-01T09:31:44.285Z,99354.06
2023-03-01T09:34:13.172Z,99347.25
2023-03-01T09:36:42.153Z,99334.81
2023-03-01T09:39:13.104Z,99333.41
2023-03-01T09:42:01.730Z,99333.88
2023-03-01T09:44:54.033Z,99328.00
2023-03-01T09:47:25.875Z,99336.00
2023-03-01T09:50:07.095Z,99326.16
2023-03-01T09:52:44.089Z,99339.28
2023-03-01T09:55:19.951Z,99329.69
2023-03-01T09:58:11.455Z,99336.53
2023-03-01T10:00:50.058Z,99332.91
2023-03-01T10:03:34.076Z,99337.25
2023-03-01T10:06:06.891Z,99333.00
2023-03-01T10:08:43.580Z,99341.59
2023-03-01T10:11:22.634Z,99348.25
2023-03-01T10:14:05.681Z,99347.09
2023-03-01T10:17:09.679Z,99347.69
2023-03-01T10:19:45.296Z,99350.84
2023-03-01T10:22:20.115Z,99350.25
2023-03-01T10:24:49.674Z,99350.00
2023-03-01T10:27:46.450Z,99339.63
2023-03-01T10:30:41.234Z,99331.38
2023-03-01T10:33:21.866Z,99324.84
2023-03-01T10:35:51.133Z,99336.78
2023-03-01T10:38:24.617Z,99345.38
2023-03-01T10:41:01.344Z,99347.16
2023-03-01T10:43:50.365Z,99339.09
2023-03-01T10:46:35.664Z,99337.75
2023-03-01T10:49:16.563Z,99331.44
2023-03-01T10:51:48.244Z,99337.94
2023-03-01T10:54:35.285Z,99333.41
2023-03-01T10:57:06.359Z,99332.50
2023-03-01T10:59:37.600Z,99329.34
2023-03-01T11:02:23.794Z,99334.19
2023-03-01T11:05:00.606Z,99317.91
2023-03-01T11:07:30.527Z,99309.06
2023-03-01T11:09:59.391Z,99293.16
2023-03-01T11:12:31.579Z,99286.13
2023-03-01T11:15:00.802Z,99280.75
2023-03-01T11:17:41.650Z,99276.25
2023-03-01T11:20:16.938Z,99281.22
2023-03-01T11:23:03.680Z,99289.16
2023-03-01T11:25:39.418Z,99286.09
2023-03-01T11:28:13.129Z,99291.59
2023-03-01T11:31:07.731Z,99290.75
2023-03-01T11:33:58.437Z,99292.53
2023-03-01T11:36:33.404Z,99286.69
2023-03-01T11:39:19.825Z,99285.38
2023-03-01T11:41:54.973Z,99282.31
2023-03-01T11:44:30.675Z,99281.16
2023-03-01T11:46:59.603Z,99279.31
2023-03-01T11:50:00.059Z,99281.84
2023-03-01T11:52:29.025Z,99278.94
2023-03-01T11:55:39.827Z,99281.16
2023-03-01T11:58:43.617Z,99282.78
2023-03-01T12:01:15.460Z,99278.91
2023-03-01T12:04:12.589Z,99279.19
2023-03-01T12:06:59.429Z,99262.91
2023-03-01T12:09:33.932Z,99260.06
2023-03-01T12:12:29.321Z,99259.22
2023-03-01T12:15:31.828Z,99263.25
2023-03-01T12:18:07.017Z,99271.53
2023-03-01T12:20:45.602Z,99276.09
2023-03-01T12:23:35.448Z,99268.34
2023-03-01T12:26:09.770Z,99263.94
2023-03-01T12:29:08.093Z,99237.66
2023-03-01T12:31:59.014Z,99232.91
2023-03-01T12:34:51.726Z,99232.03
2023-03-01T12:37:39.443Z,99239.00
2023-03-01T12:40:14.791Z,99249.47
2023-03-01T12:42:53.870Z,99255.75
2023-03-01T12:45:45.784Z,99274.38
2023-03-01T12:48:37.796Z,99280.28
2023-03-01T12:51:16.360Z,99279.03
2023-03-01T12:53:55.688Z,99273.66
2023-03-01T12:56:27.879Z,99270.34
2023-03-01T12:59:18.160Z,99270.88
2023-03-01T13:02:28.690Z,99269.31
2023-03-01T13:05:20.750Z,99269.72
2023-03-01T13:08:00.177Z,99276.22
2023-03-01T13:11:03.892Z,99267.91
2023-03-01T13:13:33.959Z,99275.25
2023-03-01T13:16:46.948Z,99278.69
2023-03-01T13:19:17.772Z,99279.31
2023-03-01T13:21:48.880Z,99280.59
2023-03-01T13:24:41.965Z,99276.13
2023-03-01T13:27:31.276Z,99281.63
2023-03-01T13:30:05.433Z,99276.22
2023-03-01T13:32:49.165Z,99289.94
2023-03-01T13:35:23.256Z,99282.28
2023-03-01T13:37:52.398Z,99296.25
2023-03-01T13:40:21.198Z,99300.34
2023-03-01T13:43:04.643Z,99299.03
2023-03-01T13:45:42.420Z,99298.84
2023-03-01T13:48:31.494Z,99308.97
2023-03-01T13:51:13.147Z,99312.59
2023-03-01T13:53:48.757Z,99312.03
2023-03-01T13:56:27.289Z,99316.22
2023-03-01T13:58:59.281Z,99311.28
2023-03-01T14:01:30.575Z,99314.94
2023-03-01T14:04:01.017Z,99314.97
2023-03-01T14:06:33.635Z,99306.94
2023-03-01T14:09:05.106Z,99312.97
2023-03-01T14:11:46.268Z,99318.53
2023-03-01T14:14:50.555Z,99319.44
2023-03-01T14:17:44.216Z,99326.13
2023-03-01T14:20:28.166Z,99320.53
2023-03-01T14:23:11.542Z,99333.88
2023-03-01T14:25:48.344Z,99337.44
2023-03-01T14:28:21.921Z,99335.53
2023-03-01T14:30:53.810Z,99338.28
2023-03-01T14:33:30.994Z,99341.63
2023-03-01T14:36:11.917Z,99342.47
2023-03-01T14:38:48.918Z,99348.47
2023-03-01T14:41:22.278Z,99349.44
2023-03-01T14:43:59.941Z,99343.28
2023-03-01T14:46:34.279Z,99346.91
2023-03-01T14:49:21.673Z,99348.94
2023-03-01T14:52:10.121Z,99347.66
2023-03-01T14:54:47.049Z,99360.56
2023-03-01T14:57:34.212Z,99352.75
2023-03-01T15:00:08.599Z,99369.13
2023-03-01T15:02:39.578Z,99362.84
2023-03-01T15:05:10.175Z,99366.28
2023-03-01T15:07:43.667Z,99372.56
2023-03-01T15:10:23.649Z,99374.09
2023-03-01T15:12:54.750Z,99381.59
2023-03-01T15:15:40.556Z,99381.97
2023-03-01T15:18:37.121Z,99384.84
2023-03-01T15:21:20.596Z,99384.59
2023-03-01T15:23:57.517Z,99390.91
2023-03-01T15:26:57.152Z,99383.28
2023-03-01T15:29:35.363Z,99392.00
2023-03-01T15:32:08.743Z,99384.84
2023-03-01T15:34:40.062Z,99396.59
2023-03-01T15:37:41.010Z,99398.53
2023-03-01T15:40:35.000Z,99407.16
2023-03-01T15:43:06.750Z,99402.69
2023-03-01T15:45:36.195Z,99400.09
2023-03-01T15:48:22.036Z,99401.72
2023-03-01T15:51:00.631Z,99404.03
2023-03-01T15:53:30.641Z,99404.41
2023-03-01T15:55:59.380Z,99400.63
2023-03-01T15:58:28.442Z,99393.69
2023-03-01T16:01:02.324Z,99400.09
2023-03-01T16:03:31.799Z,99402.94
2023-03-01T16:06:00.525Z,99414.97
2023-03-01T16:08:29.711Z,99414.06
2023-03-01T16:10:58.422Z,99415.94
2023-03-01T16:13:29.073Z,99423.00
2023-03-01T16:15:58.422Z,99427.47
2023-03-01T16:18:30.056Z,99419.69
2023-03-01T16:20:59.052Z,99415.38
2023-03-01T16:23:27.744Z,99407.94
2023-03-01T16:26:00.837Z,99399.50
2023-03-01T16:28:30.322Z,99405.84
2023-03-01T16:30:59.229Z,99402.09
2023-03-01T16:33:33.841Z,99399.50
2023-03-01T16:36:09.115Z,99400.41
2023-03-01T16:38:38.983Z,99397.09
2023-03-01T16:41:07.801Z,99395.53
2023-03-01T16:43:36.807Z,99397.13
2023-03-01T16:46:16.059Z,99397.03
2023-03-01T16:48:44.985Z,99395.59
2023-03-01T16:51:14.635Z,99400.44
2023-03-01T16:53:45.614Z,99398.97
2023-03-01T16:56:16.357Z,99397.75
2023-03-01T16:58:46.036Z,99398.84
2023-03-01T17:01:18.328Z,99391.03
2023-03-01T17:03:49.333Z,99394.44
2023-03-01T17:06:22.241Z,99397.03
2023-03-01T17:08:51.628Z,99398.25
2023-03-01T17:11:22.241Z,99397.03
2023-03-01T17:13:51.253Z,99392.97
2023-03-01T17:16:21.915Z,99387.78
2023-03-01T17:18:51.201Z,99392.47
2023-03-01T17:21:20.436Z,99392.97
2023-03-01T17:23:51.243Z,99390.59
2023-03-01T17:26:20.160Z,99406.00
2023-03-01T17:28:52.776Z,99402.44
2023-03-01T17:31:22.548Z,99404.91
2023-03-01T17:33:52.084Z,99411.66
2023-03-01T17:36:21.108Z,99411.84
2023-03-01T17:38:50.780Z,99410.09
2023-03-01T17:41:20.373Z,99407.38
2023-03-01T17:43:49.452Z,99404.16
2023-03-01T17:46:18.251Z,99406.66
2023-03-01T17:48:47.311Z,99401.72
2023-03-01T17:51:16.086Z,99409.47
2023-03-01T17:53:45.045Z,99405.91
2023-03-01T17:56:13.795Z,99402.53
2023-03-01T17:58:42.932Z,99402.72
2023-03-01T18:01:17.831Z,99412.34
2023-03-01T18:03:47.736Z,99414.19
2023-03-01T18:06:19.889Z,99409.78
2023-03-01T18:08:50.329Z,99407.38
2023-03-01T18:11:20.635Z,99410.03
2023-03-01T18:13:50.297Z,99416.13
2023-03-01T18:16:21.555Z,99421.19
2023-03-01T18:18:55.672Z,99427.19
2023-03-01T18:21:25.418Z,99424.03
2023-03-01T18:23:55.676Z,99431.72
2023-03-01T18:26:25.889Z,99423.84
2023-03-01T18:28:59.121Z,99424.78
2023-03-01T18:31:28.558Z,99418.78
2023-03-01T18:33:57.322Z,99415.28
2023-03-01T18:36:27.727Z,99413.63
2023-03-01T18:38:57.649Z,99415.28
2023-03-01T18:41:29.030Z,99409.91
2023-03-01T18:43:58.724Z,99404.84
2023-03-01T18:46:27.697Z,99407.50
2023-03-01T18:48:57.173Z,99402.31
2023-03-01T18:51:29.176Z,99397.84
2023-03-01T18:53:59.805Z,99396.25
2023-03-01T18:56:31.684Z,99394.38
2023-03-01T18:59:01.783Z,99387.72
2023-03-01T19:01:33.007Z,99381.59
2023-03-01T19:04:03.948Z,99369.63
2023-03-01T19:06:35.818Z,99362.81
2023-03-01T19:09:06.040Z,99365.47
2023-03-01T19:11:36.428Z,99355.22
2023-03-01T19:14:06.335Z,99353.41
2023-03-01T19:16:36.780Z,99350.88
2023-03-01T19:19:09.320Z,99348.22
2023-03-01T19:21:38.280Z,99347.84
2023-03-01T19:24:08.215Z,99350.38
2023-03-01T19:26:37.448Z,99349.50
2023-03-01T19:29:07.191Z,99345.19
2023-03-01T19:31:36.141Z,99361.69
2023-03-01T19:34:11.445Z,99366.72
2023-03-01T19:36:43.555Z,99377.22
2023-03-01T19:39:14.431Z,99376.34
2023-03-01T19:41:44.402Z,99375.47
2023-03-01T19:44:14.016Z,99374.69
2023-03-01T19:46:43.542Z,99381.47
2023-03-01T19:49:12.739Z,99378.19
2023-03-01T19:51:41.559Z,99374.78
2023-03-01T19:54:12.658Z,99369.59
2023-03-01T19:56:42.132Z,99368.09
2023-03-01T19:59:10.949Z,99368.09
2023-03-01T20:01:43.233Z,99368.09
2023-03-01T20:04:13.816Z,99367.97
2023-03-01T20:06:45.621Z,99357.47
2023-03-01T20:09:21.742Z,99346.22
2023-03-01T20:11:52.543Z,99343.75
2023-03-01T20:14:23.857Z,99342.13
2023-03-01T20:16:53.927Z,99339.47
2023-03-01T20:19:22.885Z,99343.78
2023-03-01T20:21:51.978Z,99340.34
2023-03-01T20:24:20.952Z,99348.19
2023-03-01T20:26:49.969Z,99347.25
2023-03-01T20:29:18.755Z,99346.41
2023-03-01T20:31:47.867Z,99345.53
2023-03-01T20:34:16.946Z,99341.09
2023-03-01T20:36:46.030Z,99341.22
2023-03-01T20:39:15.217Z,99336.66
2023-03-01T20:41:44.168Z,99329.84
2023-03-01T20:44:13.108Z,99328.09
2023-03-01T20:46:42.307Z,99317.03
2023-03-01T20:49:11.886Z,99317.16
2023-03-01T20:51:40.926Z,99317.88
2023-03-01T20:54:11.516Z,99321.25
2023-03-01T20:56:40.543Z,99324.78
2023-03-01T20:59:10.725Z,99315.06
2023-03-01T21:01:40.888Z,99324.03
2023-03-01T21:04:10.821Z,99318.78
2023-03-01T21:06:40.082Z,99314.47
2023-03-01T21:09:09.063Z,99314.44
2023-03-01T21:11:37.955Z,99317.22
2023-03-01T21:14:06.807Z,99311.09
2023-03-01T21:16:36.453Z,99321.47
2023-03-01T21:19:09.009Z,99321.47
2023-03-01T21:21:40.473Z,99316.22
2023-03-01T21:24:11.411Z,99309.41
2023-03-01T21:26:40.583Z,99314.56
2023-03-01T21:29:09.399Z,99305.97
2023-03-01T21:31:38.544Z,99314.59
2023-03-01T21:34:08.207Z,99309.34
2023-03-01T21:36:37.191Z,99311.09
2023-03-01T21:39:07.340Z,99308.38
2023-03-01T21:41:38.628Z,99295.34
2023-03-01T21:44:08.913Z,99295.50
2023-03-01T21:46:40.331Z,99301.41
2023-03-01T21:49:09.708Z,99296.38
2023-03-01T21:51:38.545Z,99297.25
2023-03-01T21:54:08.344Z,99296.69
2023-03-01T21:56:39.740Z,99302.78
2023-03-01T21:59:13.527Z,99304.34
2023-03-01T22:01:43.042Z,99298.38
2023-03-01T22:04:14.012Z,99292.19
2023-03-01T22:06:45.511Z,99290.44
2023-03-01T22:09:20.849Z,99285.50
2023-03-01T22:11:54.792Z,99286.13
2023-03-01T22:14:23.949Z,99292.28
2023-03-01T22:16:52.799Z,99285.25
2023-03-01T22:19:22.777Z,99280.91
2023-03-01T22:21:53.422Z,99276.69
2023-03-01T22:24:25.178Z,99275.75
2023-03-01T22:26:55.469Z,99267.97
2023-03-01T22:29:30.314Z,99263.66
2023-03-01T22:32:00.508Z,99260.25
2023-03-01T22:34:30.122Z,99252.50
2023-03-01T22:36:59.522Z,99255.13
2023-03-01T22:39:28.523Z,99246.41
2023-03-01T22:41:57.204Z,99254.31
2023-03-01T22:44:26.675Z,99251.88
2023-03-01T22:46:55.461Z,99249.34
2023-03-01T22:49:24.549Z,99253.50
2023-03-01T22:51:53.626Z,99251.13
2023-03-01T22:54:22.944Z,99261.56
2023-03-01T22:56:51.767Z,99254.59
2023-03-01T22:59:25.861Z,99257.00
2023-03-01T23:01:55.969Z,99262.19
2023-03-01T23:04:25.289Z,99267.63
2023-03-01T23:06:57.699Z,99268.63
2023-03-01T23:09:26.564Z,99261.53
2023-03-01T23:11:56.024Z,99265.81
2023-03-01T23:14:26.318Z,99267.78
2023-03-01T23:16:55.351Z,99261.69
2023-03-01T23:19:24.688Z,99263.41
2023-03-01T23:21:55.300Z,99267.88
2023-03-01T23:24:32.376Z,99265.81
2023-03-01T23:27:02.957Z,99274.66
2023-03-01T23:29:32.743Z,99266.81
2023-03-01T23:32:02.426Z,99265.34
2023-03-01T23:34:31.601Z,99273.78
2023-03-01T23:37:00.300Z,99268.63
2023-03-01T23:39:30.824Z,99268.69
2023-03-01T23:42:00.072Z,99269.44
2023-03-01T23:44:28.845Z,99274.75
2023-03-01T23:46:57.727Z,99281.78
2023-03-01T23:49:26.537Z,99277.41
2023-03-01T23:51:55.522Z,99292.03
2023-03-01T23:54:25.638Z,99292.03
2023-03-01T23:56:54.812Z,99296.66
2023-03-01T23:59:25.508Z,99296.38
